createdAt,value
2022-07-25T00:01:02.000Z,9.52
2022-07-25T00:03:29.953Z,5.75
2022-07-25T00:05:57.217Z,5.55
2022-07-25T00:08:24.852Z,5.40
2022-07-25T00:10:52.909Z,7.22
2022-07-25T00:13:20.260Z,8.70
2022-07-25T00:15:47.627Z,8.27
2022-07-25T00:18:14.930Z,7.28
2022-07-25T00:20:42.427Z,5.53
2022-07-25T00:23:09.638Z,7.28
2022-07-25T00:25:36.810Z,15.23
2022-07-25T00:28:04.241Z,11.65
2022-07-25T00:30:31.651Z,7.45
2022-07-25T00:32:58.920Z,13.07
2022-07-25T00:35:26.315Z,11.60
2022-07-25T00:37:53.555Z,11.93
2022-07-25T00:40:20.903Z,12.90
2022-07-25T00:42:48.209Z,12.73
2022-07-25T00:45:15.446Z,10.88
2022-07-25T00:47:42.867Z,9.45
2022-07-25T00:50:10.394Z,8.82
2022-07-25T00:52:37.598Z,9.80
2022-07-25T00:55:05.355Z,11.77
2022-07-25T00:57:32.625Z,12.02
2022-07-25T01:00:00.360Z,8.85
2022-07-25T01:02:27.572Z,10.98
2022-07-25T01:04:55.262Z,11.88
2022-07-25T01:07:23.207Z,10.60
2022-07-25T01:09:50.884Z,8.68
2022-07-25T01:12:18.117Z,8.02
2022-07-25T01:14:45.454Z,11.27
2022-07-25T01:17:13.541Z,9.45
2022-07-25T01:19:41.102Z,9.95
2022-07-25T01:22:08.408Z,9.13
2022-07-25T01:24:36.485Z,12.15
2022-07-25T01:27:04.021Z,10.75
2022-07-25T01:29:31.498Z,11.43
2022-07-25T01:31:58.651Z,9.88
2022-07-25T01:34:25.958Z,11.13
2022-07-25T01:36:53.130Z,11.25
2022-07-25T01:39:20.306Z,9.85
2022-07-25T01:41:47.570Z,8.40
2022-07-25T01:44:14.879Z,10.85
2022-07-25T01:46:42.036Z,11.70
2022-07-25T01:49:09.520Z,9.90
2022-07-25T01:51:36.674Z,8.40
2022-07-25T01:54:04.620Z,8.70
2022-07-25T01:56:36.350Z,10.48
2022-07-25T01:59:04.016Z,9.90
2022-07-25T02:01:31.345Z,10.68
2022-07-25T02:03:58.562Z,10.02
2022-07-25T02:06:25.922Z,8.90
2022-07-25T02:08:53.233Z,12.35
2022-07-25T02:11:21.008Z,14.27
2022-07-25T02:13:48.444Z,13.80
2022-07-25T02:16:15.711Z,13.50
2022-07-25T02:18:43.205Z,5.75
2022-07-25T02:21:14.322Z,11.70
2022-07-25T02:23:43.351Z,5.80
2022-07-25T02:26:11.720Z,9.27
2022-07-25T02:28:39.388Z,5.45
2022-07-25T02:31:07.256Z,6.75
2022-07-25T02:33:34.467Z,7.03
2022-07-25T02:36:01.702Z,6.07
2022-07-25T02:38:28.935Z,5.15
2022-07-25T02:40:56.369Z,5.43
2022-07-25T02:43:23.696Z,5.50
2022-07-25T02:45:51.133Z,7.32
2022-07-25T02:48:18.686Z,6.10
2022-07-25T02:50:45.895Z,5.15
2022-07-25T02:53:13.131Z,4.68
2022-07-25T02:55:40.372Z,4.60
2022-07-25T02:58:07.895Z,4.65
2022-07-25T03:00:35.230Z,5.45
2022-07-25T03:03:02.510Z,5.53
2022-07-25T03:05:31.747Z,7.43
2022-07-25T03:07:59.191Z,4.30
2022-07-25T03:10:26.516Z,4.43
2022-07-25T03:12:53.776Z,5.13
2022-07-25T03:15:20.916Z,6.30
2022-07-25T03:17:48.203Z,5.28
2022-07-25T03:20:15.322Z,5.38
2022-07-25T03:22:42.529Z,4.53
2022-07-25T03:25:15.629Z,5.95
2022-07-25T03:27:49.152Z,5.88
2022-07-25T03:30:16.295Z,7.72
2022-07-25T03:32:43.506Z,8.63
2022-07-25T03:35:10.672Z,10.40
2022-07-25T03:37:37.880Z,8.68
2022-07-25T03:40:06.116Z,11.35
2022-07-25T03:42:35.588Z,11.13
2022-07-25T03:45:03.069Z,8.57
2022-07-25T03:47:31.233Z,9.10
2022-07-25T03:49:58.404Z,8.93
2022-07-25T03:52:25.708Z,11.07
2022-07-25T03:54:53.038Z,11.77
2022-07-25T03:57:20.820Z,8.38
2022-07-25T03:59:48.144Z,9.27
2022-07-25T04:02:15.395Z,7.25
2022-07-25T04:04:42.714Z,7.03
2022-07-25T04:07:09.844Z,11.30
2022-07-25T04:09:37.952Z,6.80
2022-07-25T04:12:05.815Z,7.20
2022-07-25T04:14:33.173Z,5.35
2022-07-25T04:17:00.642Z,5.05
2022-07-25T04:19:28.847Z,5.68
2022-07-25T04:21:56.348Z,8.27
2022-07-25T04:24:23.800Z,6.53
2022-07-25T04:26:52.055Z,7.32
2022-07-25T04:29:19.256Z,6.00
2022-07-25T04:31:46.605Z,8.23
2022-07-25T04:34:13.903Z,7.50
2022-07-25T04:36:41.500Z,6.20
2022-07-25T04:39:08.725Z,5.28
2022-07-25T04:41:36.089Z,5.55
2022-07-25T04:44:03.687Z,6.20
2022-07-25T04:46:32.131Z,9.65
2022-07-25T04:49:00.528Z,10.25
2022-07-25T04:51:28.204Z,6.25
2022-07-25T04:53:55.315Z,9.27
2022-07-25T04:56:22.858Z,7.55
2022-07-25T04:58:50.561Z,11.15
2022-07-25T05:01:17.808Z,6.57
2022-07-25T05:03:49.990Z,6.15
2022-07-25T05:06:19.716Z,6.20
2022-07-25T05:08:47.314Z,10.70
2022-07-25T05:11:14.706Z,6.70
2022-07-25T05:13:41.905Z,6.47
2022-07-25T05:16:09.505Z,6.78
2022-07-25T05:18:36.902Z,7.65
2022-07-25T05:21:04.304Z,8.27
2022-07-25T05:23:31.656Z,7.32
2022-07-25T05:25:59.951Z,5.78
2022-07-25T05:28:27.435Z,4.50
2022-07-25T05:30:54.636Z,3.80
2022-07-25T05:33:21.948Z,6.28
2022-07-25T05:35:49.134Z,5.00
2022-07-25T05:38:16.726Z,6.03
2022-07-25T05:40:44.003Z,6.43
2022-07-25T05:43:11.161Z,3.88
2022-07-25T05:45:38.415Z,3.50
2022-07-25T05:48:05.908Z,5.57
2022-07-25T05:50:33.069Z,6.38
2022-07-25T05:53:00.310Z,7.70
2022-07-25T05:55:28.084Z,4.50
2022-07-25T05:57:55.377Z,4.97
2022-07-25T06:00:22.913Z,4.60
2022-07-25T06:02:50.649Z,8.77
2022-07-25T06:05:17.994Z,4.80
2022-07-25T06:07:45.332Z,5.30
2022-07-25T06:10:12.882Z,5.15
2022-07-25T06:12:40.157Z,4.50
2022-07-25T06:15:08.870Z,5.40
2022-07-25T06:17:45.025Z,6.22
2022-07-25T06:20:12.963Z,3.80
2022-07-25T06:22:40.513Z,5.97
2022-07-25T06:25:08.591Z,4.70
2022-07-25T06:27:37.207Z,5.32
2022-07-25T06:30:11.287Z,5.40
2022-07-25T06:32:46.418Z,6.18
2022-07-25T06:35:13.751Z,5.38
2022-07-25T06:37:41.236Z,4.15
2022-07-25T06:40:10.074Z,5.22
2022-07-25T06:42:43.556Z,4.65
2022-07-25T06:45:12.421Z,5.22
2022-07-25T06:47:41.512Z,5.30
2022-07-25T06:50:11.667Z,4.10
2022-07-25T06:52:40.001Z,3.75
2022-07-25T06:55:09.577Z,4.35
2022-07-25T06:57:37.310Z,3.67
2022-07-25T07:00:10.941Z,4.10
2022-07-25T07:02:53.308Z,5.00
2022-07-25T07:05:21.080Z,4.88
2022-07-25T07:07:48.372Z,7.57
2022-07-25T07:10:17.037Z,5.32
2022-07-25T07:12:45.238Z,7.15
2022-07-25T07:15:13.037Z,4.50
2022-07-25T07:17:40.437Z,6.38
2022-07-25T07:20:08.759Z,3.85
2022-07-25T07:22:49.980Z,6.82
2022-07-25T07:25:19.650Z,4.68
2022-07-25T07:27:48.358Z,7.70
2022-07-25T07:30:16.851Z,9.52
2022-07-25T07:32:47.442Z,5.88
2022-07-25T07:35:16.778Z,9.07
2022-07-25T07:37:44.815Z,7.82
2022-07-25T07:40:17.741Z,4.65
2022-07-25T07:42:48.214Z,3.50
2022-07-25T07:45:19.769Z,5.18
2022-07-25T07:47:48.954Z,4.20
2022-07-25T07:50:18.585Z,6.47
2022-07-25T07:52:46.241Z,4.47
2022-07-25T07:55:32.390Z,5.30
2022-07-25T07:58:00.144Z,3.70
2022-07-25T08:00:30.568Z,3.55
2022-07-25T08:02:59.600Z,4.45
2022-07-25T08:05:30.242Z,4.25
2022-07-25T08:07:58.321Z,4.13
2022-07-25T08:10:31.176Z,3.75
2022-07-25T08:13:00.216Z,3.03
2022-07-25T08:15:27.752Z,3.72
2022-07-25T08:17:55.662Z,3.15
2022-07-25T08:20:39.494Z,4.10
2022-07-25T08:23:08.508Z,6.07
2022-07-25T08:25:36.000Z,4.70
2022-07-25T08:28:05.314Z,3.50
2022-07-25T08:30:33.859Z,4.13
2022-07-25T08:33:04.324Z,2.92
2022-07-25T08:35:33.193Z,3.88
2022-07-25T08:38:01.560Z,2.90
2022-07-25T08:40:30.258Z,2.72
2022-07-25T08:43:01.134Z,3.40
2022-07-25T08:45:29.916Z,3.95
2022-07-25T08:47:58.138Z,5.30
2022-07-25T08:50:29.092Z,3.20
2022-07-25T08:53:16.609Z,2.80
2022-07-25T08:55:45.964Z,2.80
2022-07-25T08:58:16.386Z,3.55
2022-07-25T09:00:45.716Z,5.35
2022-07-25T09:03:14.897Z,3.95
2022-07-25T09:05:43.975Z,3.22
2022-07-25T09:08:20.769Z,3.08
2022-07-25T09:10:50.505Z,3.90
2022-07-25T09:13:19.979Z,3.83
2022-07-25T09:15:49.504Z,4.15
2022-07-25T09:18:22.322Z,2.65
2022-07-25T09:20:52.001Z,4.10
2022-07-25T09:23:30.816Z,3.72
2022-07-25T09:26:08.708Z,2.30
2022-07-25T09:28:44.610Z,3.67
2022-07-25T09:31:12.716Z,3.85
2022-07-25T09:33:59.649Z,2.80
2022-07-25T09:36:26.883Z,3.75
2022-07-25T09:39:01.049Z,7.68
2022-07-25T09:41:40.903Z,3.63
2022-07-25T09:44:19.646Z,4.07
2022-07-25T09:46:47.470Z,3.17
2022-07-25T09:49:15.362Z,2.28
2022-07-25T09:51:44.607Z,3.63
2022-07-25T09:54:12.003Z,4.15
2022-07-25T09:56:39.659Z,3.08
2022-07-25T09:59:07.146Z,3.67
2022-07-25T10:01:51.745Z,3.45
2022-07-25T10:04:40.007Z,5.60
2022-07-25T10:07:12.670Z,4.70
2022-07-25T10:09:47.873Z,13.10
2022-07-25T10:12:20.362Z,5.30
2022-07-25T10:15:11.468Z,4.03
2022-07-25T10:17:41.113Z,3.55
2022-07-25T10:20:10.470Z,10.32
2022-07-25T10:22:55.067Z,5.78
2022-07-25T10:25:24.282Z,5.00
2022-07-25T10:28:01.309Z,4.18
2022-07-25T10:30:35.974Z,5.15
2022-07-25T10:33:05.615Z,3.50
2022-07-25T10:35:33.291Z,4.18
2022-07-25T10:38:04.517Z,3.90
2022-07-25T10:40:40.626Z,4.03
2022-07-25T10:43:10.140Z,3.70
2022-07-25T10:45:39.870Z,5.55
2022-07-25T10:48:08.937Z,4.50
2022-07-25T10:50:55.291Z,5.53
2022-07-25T10:53:35.094Z,4.95
2022-07-25T10:56:13.771Z,5.30
2022-07-25T10:58:45.522Z,5.00
2022-07-25T11:01:16.966Z,5.88
2022-07-25T11:03:47.035Z,4.78
2022-07-25T11:06:16.179Z,4.72
2022-07-25T11:08:45.019Z,6.72
2022-07-25T11:11:12.530Z,4.75
2022-07-25T11:13:42.107Z,4.85
2022-07-25T11:16:10.740Z,5.47
2022-07-25T11:18:42.440Z,7.55
2022-07-25T11:21:11.095Z,5.57
2022-07-25T11:23:41.037Z,12.18
2022-07-25T11:26:13.349Z,6.65
2022-07-25T11:28:46.736Z,6.03
2022-07-25T11:31:15.783Z,5.45
2022-07-25T11:33:48.340Z,4.45
2022-07-25T11:36:17.005Z,4.90
2022-07-25T11:38:49.578Z,5.15
2022-07-25T11:41:28.092Z,6.80
2022-07-25T11:43:55.458Z,8.90
2022-07-25T11:46:24.115Z,5.85
2022-07-25T11:48:51.817Z,5.60
2022-07-25T11:51:19.887Z,5.45
2022-07-25T11:53:50.324Z,5.43
2022-07-25T11:56:41.822Z,7.03
2022-07-25T11:59:16.499Z,7.30
2022-07-25T12:01:45.781Z,8.25
2022-07-25T12:04:18.743Z,9.50
2022-07-25T12:06:52.128Z,6.10
2022-07-25T12:09:22.214Z,6.05
2022-07-25T12:11:49.954Z,5.97
2022-07-25T12:14:17.630Z,6.85
2022-07-25T12:16:45.335Z,9.35
2022-07-25T12:19:21.655Z,11.82
2022-07-25T12:21:49.169Z,8.18
2022-07-25T12:24:16.581Z,9.60
2022-07-25T12:26:44.421Z,6.57
2022-07-25T12:29:11.671Z,6.85
2022-07-25T12:31:38.995Z,9.75
2022-07-25T12:34:06.564Z,7.85
2022-07-25T12:36:35.971Z,11.60
2022-07-25T12:39:03.793Z,7.18
2022-07-25T12:41:31.369Z,7.00
2022-07-25T12:44:00.637Z,7.68
2022-07-25T12:46:28.189Z,8.95
2022-07-25T12:48:55.843Z,8.38
2022-07-25T12:51:23.409Z,9.48
2022-07-25T12:53:50.872Z,8.43
2022-07-25T12:56:18.296Z,8.93
2022-07-25T12:58:45.821Z,8.93
2022-07-25T13:01:14.037Z,7.70
2022-07-25T13:03:41.900Z,13.60
2022-07-25T13:06:09.440Z,8.98
2022-07-25T13:08:38.256Z,10.85
2022-07-25T13:11:06.082Z,10.75
2022-07-25T13:13:33.447Z,8.57
2022-07-25T13:16:01.915Z,9.73
2022-07-25T13:18:30.555Z,9.77
2022-07-25T13:20:58.182Z,9.75
2022-07-25T13:23:25.726Z,10.57
2022-07-25T13:25:54.158Z,8.45
2022-07-25T13:28:21.695Z,14.65
2022-07-25T13:30:49.552Z,10.38
2022-07-25T13:33:16.959Z,10.00
2022-07-25T13:35:44.402Z,7.90
2022-07-25T13:38:12.383Z,8.07
2022-07-25T13:40:43.519Z,12.70
2022-07-25T13:43:12.754Z,10.77
2022-07-25T13:45:44.633Z,9.93
2022-07-25T13:48:28.825Z,9.13
2022-07-25T13:50:58.036Z,8.27
2022-07-25T13:53:29.922Z,8.52
2022-07-25T13:55:58.991Z,7.18
2022-07-25T13:58:27.279Z,7.85
2022-07-25T14:00:55.320Z,6.80
2022-07-25T14:03:23.012Z,8.60
2022-07-25T14:05:50.576Z,7.68
2022-07-25T14:08:19.606Z,8.20
2022-07-25T14:10:46.917Z,7.00
2022-07-25T14:13:14.333Z,7.00
2022-07-25T14:15:42.763Z,6.78
2022-07-25T14:18:10.301Z,7.13
2022-07-25T14:20:37.757Z,8.68
2022-07-25T14:23:05.488Z,7.43
2022-07-25T14:25:32.864Z,6.82
2022-07-25T14:28:00.927Z,8.65
2022-07-25T14:30:28.467Z,6.78
2022-07-25T14:32:55.739Z,6.78
2022-07-25T14:35:24.139Z,6.70
2022-07-25T14:37:53.915Z,6.15
2022-07-25T14:40:21.515Z,6.82
2022-07-25T14:42:49.424Z,6.97
2022-07-25T14:45:19.631Z,7.05
2022-07-25T14:47:46.969Z,6.40
2022-07-25T14:50:14.617Z,6.50
2022-07-25T14:52:41.939Z,8.48
2022-07-25T14:55:09.943Z,8.32
2022-07-25T14:57:37.538Z,7.10
2022-07-25T15:00:06.198Z,8.07
2022-07-25T15:02:33.765Z,6.22
2022-07-25T15:05:01.229Z,7.20
2022-07-25T15:07:30.976Z,7.40
2022-07-25T15:09:58.246Z,6.22
2022-07-25T15:12:25.500Z,7.78
2022-07-25T15:14:52.986Z,12.05
2022-07-25T15:17:20.296Z,9.00
2022-07-25T15:19:47.710Z,11.95
2022-07-25T15:22:15.725Z,6.82
2022-07-25T15:25:06.804Z,7.88
2022-07-25T15:27:31.258Z,8.88
2022-07-25T15:29:58.680Z,7.90
2022-07-25T15:32:25.984Z,10.38
2022-07-25T15:34:53.265Z,5.72
2022-07-25T15:37:22.108Z,6.32
2022-07-25T15:39:49.844Z,6.05
2022-07-25T15:42:17.327Z,6.10
2022-07-25T15:44:44.924Z,8.32
2022-07-25T15:47:12.491Z,8.15
2022-07-25T15:49:39.808Z,7.45
2022-07-25T15:52:08.172Z,6.03
2022-07-25T15:54:36.182Z,6.45
2022-07-25T15:57:03.617Z,9.48
2022-07-25T15:59:31.045Z,6.10
2022-07-25T16:01:58.600Z,7.82
2022-07-25T16:04:26.550Z,6.75
2022-07-25T16:06:53.910Z,5.97
2022-07-25T16:09:21.587Z,5.50
2022-07-25T16:11:48.853Z,6.50
2022-07-25T16:14:16.258Z,8.45
2022-07-25T16:16:44.520Z,6.50
2022-07-25T16:19:12.820Z,8.25
2022-07-25T16:21:40.665Z,6.57
2022-07-25T16:24:10.002Z,9.50
2022-07-25T16:26:38.143Z,5.65
2022-07-25T16:29:06.388Z,6.20
2022-07-25T16:31:33.905Z,5.75
2022-07-25T16:34:01.707Z,6.60
2022-07-25T16:36:29.915Z,6.85
2022-07-25T16:38:57.706Z,7.47
2022-07-25T16:41:25.301Z,9.63
2022-07-25T16:43:53.459Z,10.43
2022-07-25T16:46:25.604Z,7.60
2022-07-25T16:48:55.906Z,8.25
2022-07-25T16:51:23.597Z,8.15
2022-07-25T16:53:51.149Z,10.48
2022-07-25T16:56:18.512Z,8.63
2022-07-25T16:58:47.280Z,7.35
2022-07-25T17:01:15.924Z,6.82
2022-07-25T17:03:44.215Z,6.82
2022-07-25T17:06:11.870Z,10.35
2022-07-25T17:08:39.385Z,6.40
2022-07-25T17:11:08.377Z,4.60
2022-07-25T17:13:36.400Z,6.85
2022-07-25T17:16:05.405Z,7.15
2022-07-25T17:18:33.082Z,7.55
2022-07-25T17:21:00.451Z,10.68
2022-07-25T17:23:27.954Z,6.55
2022-07-25T17:25:55.481Z,6.53
2022-07-25T17:28:24.299Z,8.65
2022-07-25T17:30:52.368Z,6.47
2022-07-25T17:33:19.829Z,4.10
2022-07-25T17:35:47.368Z,4.60
2022-07-25T17:38:14.768Z,6.07
2022-07-25T17:40:42.121Z,6.35
2022-07-25T17:43:09.578Z,4.40
2022-07-25T17:45:37.157Z,4.43
2022-07-25T17:48:06.271Z,6.47
2022-07-25T17:50:35.675Z,4.78
2022-07-25T17:53:03.062Z,6.63
2022-07-25T17:55:35.524Z,4.10
2022-07-25T17:58:06.458Z,4.53
2022-07-25T18:00:33.948Z,4.32
2022-07-25T18:03:01.258Z,5.47
2022-07-25T18:05:29.136Z,6.47
2022-07-25T18:07:56.797Z,4.20
2022-07-25T18:10:24.428Z,5.15
2022-07-25T18:12:51.868Z,4.05
2022-07-25T18:15:19.276Z,6.50
2022-07-25T18:17:47.683Z,5.45
2022-07-25T18:20:18.266Z,6.07
2022-07-25T18:22:46.053Z,4.28
2022-07-25T18:25:14.502Z,3.92
2022-07-25T18:27:47.018Z,5.07
2022-07-25T18:30:16.106Z,3.67
2022-07-25T18:32:43.717Z,5.03
2022-07-25T18:35:11.536Z,4.75
2022-07-25T18:37:39.290Z,5.22
2022-07-25T18:40:08.533Z,4.25
2022-07-25T18:42:36.487Z,4.57
2022-07-25T18:45:06.177Z,6.82
2022-07-25T18:47:35.224Z,4.95
2022-07-25T18:50:03.449Z,6.65
2022-07-25T18:52:35.142Z,5.30
2022-07-25T18:55:07.580Z,4.55
2022-07-25T18:57:35.229Z,5.75
2022-07-25T19:00:08.522Z,6.32
2022-07-25T19:02:36.815Z,8.68
2022-07-25T19:05:04.646Z,5.25
2022-07-25T19:07:36.620Z,4.40
2022-07-25T19:10:04.645Z,6.85
2022-07-25T19:12:31.968Z,9.13
2022-07-25T19:15:00.677Z,6.65
2022-07-25T19:17:28.019Z,6.65
2022-07-25T19:19:55.629Z,6.20
2022-07-25T19:22:22.979Z,5.85
2022-07-25T19:24:52.720Z,5.38
2022-07-25T19:27:21.986Z,7.05
2022-07-25T19:29:51.377Z,6.28
2022-07-25T19:32:18.798Z,6.28
2022-07-25T19:34:46.508Z,6.88
2022-07-25T19:37:13.960Z,5.32
2022-07-25T19:39:41.337Z,5.60
2022-07-25T19:42:10.094Z,5.60
2022-07-25T19:44:37.880Z,6.97
2022-07-25T19:47:11.245Z,6.55
2022-07-25T19:49:40.475Z,4.65
2022-07-25T19:52:08.699Z,7.32
2022-07-25T19:54:37.995Z,6.00
2022-07-25T19:57:05.570Z,7.07
2022-07-25T19:59:32.960Z,6.05
2022-07-25T20:02:00.504Z,4.88
2022-07-25T20:04:28.769Z,4.63
2022-07-25T20:06:56.091Z,8.27
2022-07-25T20:09:23.497Z,4.70
2022-07-25T20:11:51.073Z,6.50
2022-07-25T20:14:18.526Z,6.85
2022-07-25T20:16:48.707Z,5.50
2022-07-25T20:19:16.389Z,8.18
2022-07-25T20:21:44.556Z,5.15
2022-07-25T20:24:19.361Z,6.50
2022-07-25T20:26:48.817Z,6.10
2022-07-25T20:29:16.902Z,5.32
2022-07-25T20:31:45.266Z,7.68
2022-07-25T20:34:14.665Z,7.50
2022-07-25T20:36:42.703Z,5.63
2022-07-25T20:39:10.596Z,6.68
2022-07-25T20:41:39.114Z,5.47
2022-07-25T20:44:06.757Z,6.60
2022-07-25T20:46:36.888Z,6.63
2022-07-25T20:49:28.369Z,6.80
2022-07-25T20:51:55.948Z,5.75
2022-07-25T20:54:23.266Z,8.50
2022-07-25T20:56:50.690Z,7.50
2022-07-25T20:59:18.172Z,6.10
2022-07-25T21:01:46.020Z,5.38
2022-07-25T21:04:13.365Z,5.90
2022-07-25T21:06:40.787Z,7.03
2022-07-25T21:09:12.993Z,7.97
2022-07-25T21:11:40.496Z,8.25
2022-07-25T21:14:08.189Z,7.15
2022-07-25T21:16:35.890Z,8.65
2022-07-25T21:19:03.472Z,6.03
2022-07-25T21:21:31.350Z,6.20
2022-07-25T21:23:58.576Z,5.78
2022-07-25T21:26:25.772Z,6.55
2022-07-25T21:28:54.041Z,8.70
2022-07-25T21:31:22.899Z,9.57
2022-07-25T21:33:50.302Z,6.47
2022-07-25T21:36:17.576Z,8.93
2022-07-25T21:38:44.807Z,7.22
2022-07-25T21:41:12.053Z,8.70
2022-07-25T21:43:41.114Z,7.53
2022-07-25T21:46:08.551Z,6.82
2022-07-25T21:48:54.695Z,6.15
2022-07-25T21:51:23.001Z,10.15
2022-07-25T21:53:52.163Z,7.13
2022-07-25T21:56:20.164Z,9.15
2022-07-25T21:58:47.477Z,8.13
2022-07-25T22:01:14.888Z,7.15
2022-07-25T22:03:42.415Z,7.63
2022-07-25T22:06:10.422Z,8.52
2022-07-25T22:08:39.529Z,8.15
2022-07-25T22:11:07.750Z,7.20
2022-07-25T22:13:48.080Z,9.35
2022-07-25T22:16:16.611Z,9.52
2022-07-25T22:18:44.255Z,7.78
2022-07-25T22:21:11.561Z,6.53
2022-07-25T22:23:43.194Z,7.65
2022-07-25T22:26:10.447Z,8.13
2022-07-25T22:28:37.814Z,8.07
2022-07-25T22:31:05.083Z,8.18
2022-07-25T22:33:34.585Z,7.80
2022-07-25T22:36:02.397Z,9.38
2022-07-25T22:38:29.732Z,11.20
2022-07-25T22:40:58.028Z,10.38
2022-07-25T22:43:25.639Z,8.77
2022-07-25T22:46:13.037Z,11.05
2022-07-25T22:48:43.050Z,9.35
2022-07-25T22:51:10.266Z,8.55
2022-07-25T22:53:37.718Z,10.45
2022-07-25T22:56:05.209Z,9.18
2022-07-25T22:58:32.486Z,10.30
2022-07-25T23:00:59.636Z,7.53
2022-07-25T23:03:30.609Z,9.90
2022-07-25T23:06:00.523Z,8.77
2022-07-25T23:08:28.421Z,8.90
2022-07-25T23:10:55.872Z,8.30
2022-07-25T23:13:23.268Z,12.10
2022-07-25T23:15:51.439Z,9.25
2022-07-25T23:18:19.400Z,9.10
2022-07-25T23:20:46.789Z,9.32
2022-07-25T23:23:14.377Z,9.40
2022-07-25T23:25:41.715Z,10.30
2022-07-25T23:28:08.908Z,9.60
2022-07-25T23:30:40.223Z,11.13
2022-07-25T23:33:08.792Z,12.27
2022-07-25T23:35:36.442Z,8.82
2022-07-25T23:38:04.171Z,9.75
2022-07-25T23:40:31.416Z,7.95
2022-07-25T23:42:58.717Z,7.88
2022-07-25T23:45:28.093Z,8.13
2022-07-25T23:47:57.070Z,10.40
2022-07-25T23:50:24.644Z,7.53
2022-07-25T23:52:52.436Z,8.02
2022-07-25T23:55:19.740Z,8.55
2022-07-25T23:57:46.997Z,6.47
